Hakozaki Maru — JJ3662 — position and weather

sailwx.info

Track history (hours):
 
Tides and Currents Weather Stations Pressure Air Temp Water Temp Dewpoint Dewpoint Depression Visibility Wind Speed Wind Dir Waves Ship Positions

Hakozaki Maru

Last reported at 2015-Jul-06 22:31 UTC. Time now 2015-Jul-07 13:15 UTC.
Position N 34°40' E 135°13'.

Length 31 m; draft 2.5 m.

Type: Tug. MMSI: 431000322.

Date/timePositionNaut miles runAvg speedWind from/ knotsBaromVisibWave heightAir tempDewpointWater temp
2015-Jul-06 22:31N 34°40' E 135°13'1 1.4
2015-Jul-06 21:33N 34°40' E 135°15'2 2.4
2015-Jul-06 20:32N 34°41' E 135°12'0 0.0
2015-Jul-05 02:18N 34°41' E 135°13'2 2.8
2015-Jul-05 01:33N 34°41' E 135°15'2 1.7
2015-Jul-05 00:33N 34°41' E 135°13'1 0.7
2015-Jul-04 23:31N 34°41' E 135°12'2 0.1
2015-Jul-04 05:33N 34°41' E 135°14'2 1.6
2015-Jul-04 04:32N 34°41' E 135°12'0 0.0
2015-Jul-04 03:32N 34°41' E 135°12'0 0.0
2015-Jul-04 02:32N 34°41' E 135°12'0 0.0
2015-Jul-04 01:32N 34°41' E 135°12'1 1.1
2015-Jul-04 00:33N 34°41' E 135°13'1 0.9
2015-Jul-03 23:23N 34°41' E 135°12'4 0.4
2015-Jul-03 12:09N 34°42' E 135°17'0 0.4
2015-Jul-03 11:33N 34°41' E 135°17'0 0.4
2015-Jul-03 10:29N 34°42' E 135°17'0 0.0
2015-Jul-03 09:23N 34°42' E 135°17'0 0.0
2015-Jul-03 08:23N 34°42' E 135°17'0 0.0
2015-Jul-03 07:23N 34°42' E 135°17'0 0.4
2015-Jul-03 06:33N 34°42' E 135°18'0 0.3
2015-Jul-03 05:31N 34°42' E 135°17'0 0.0
2015-Jul-03 04:31N 34°42' E 135°17'0 0.0
2015-Jul-03 03:31N 34°42' E 135°17'0 0.0
2015-Jul-03 02:31N 34°42' E 135°17'0 0.0
2015-Jul-03 01:31N 34°42' E 135°17'0 0.0
2015-Jul-03 00:31N 34°42' E 135°17'0 0.0
2015-Jul-02 23:31N 34°42' E 135°17'1 0.6
2015-Jul-02 22:33N 34°42' E 135°18'2 1.8
2015-Jul-02 21:28N 34°42' E 135°16'1 0.1
2015-Jul-02 06:30N 34°41' E 135°17'4 4.1
2015-Jul-02 05:30N 34°41' E 135°12'0 0.0
2015-Jul-02 04:30N 34°41' E 135°12'0 0.0
2015-Jul-02 03:30N 34°41' E 135°12'0 0.0
2015-Jul-02 02:30N 34°41' E 135°12'0 0.0
2015-Jul-02 01:30N 34°41' E 135°12'0 0.0
2015-Jul-02 00:30N 34°41' E 135°12'5 5.0
2015-Jul-01 23:33N 34°42' E 135°18'1 0.8
2015-Jul-01 22:33N 34°41' E 135°18'3 3.2
2015-Jul-01 21:33N 34°41' E 135°14'0 0.0
2015-Jul-01 09:10N 34°41' E 135°15'2 2.6
2015-Jul-01 08:32N 34°42' E 135°16'0 0.1
2015-Jul-01 07:30N 34°42' E 135°16'1 0.7
2015-Jul-01 06:33N 34°42' E 135°17'2 2.1
2015-Jul-01 05:33N 34°41' E 135°19'2 2.2
2015-Jul-01 04:28N 34°42' E 135°16'0 0.0
2015-Jul-01 03:28N 34°42' E 135°16'0 0.0
2015-Jul-01 02:28N 34°42' E 135°16'2 1.8
2015-Jul-01 01:31N 34°42' E 135°14'0 0.1
2015-Jul-01 00:28N 34°42' E 135°14'2 1.6
2015-Jun-30 23:22N 34°41' E 135°12'4 4.6
2015-Jun-30 22:30N 34°42' E 135°17'2 2.3
2015-Jun-30 21:33N 34°41' E 135°15'1 0.1
2015-Jun-30 09:05N 34°40' E 135°14'0 0.9
2015-Jun-30 08:33N 34°41' E 135°13'1 1.0
2015-Jun-30 07:28N 34°41' E 135°12'0 0.0
2015-Jun-30 06:28N 34°41' E 135°12'3 3.3
2015-Jun-30 05:25N 34°39' E 135°09'0 0.3
2015-Jun-30 04:33N 34°39' E 135°09'3 3.4
2015-Jun-30 03:32N 34°41' E 135°12'0 0.0
2015-Jun-30 02:32N 34°41' E 135°12'0 0.0
2015-Jun-30 01:26N 34°41' E 135°12'0 0.0
2015-Jun-30 00:26N 34°41' E 135°12'0 0.0
2015-Jun-29 23:32N 34°41' E 135°12'4 3.6
2015-Jun-29 22:33N 34°39' E 135°09'3 2.8
2015-Jun-29 21:33N 34°40' E 135°12'  
2015-Jun-27 10:24N 34°41' E 135°13'1 0.7
2015-Jun-27 09:32N 34°41' E 135°14'0 0.0
2015-Jun-27 08:32N 34°41' E 135°14'0 0.0
2015-Jun-27 07:20N 34°41' E 135°14'0 0.0
2015-Jun-27 06:32N 34°41' E 135°14'1 1.0
2015-Jun-27 05:30N 34°42' E 135°13'0 0.0
2015-Jun-27 04:30N 34°42' E 135°13'2 1.6
2015-Jun-27 03:33N 34°42' E 135°15'2 1.6
2015-Jun-27 02:33N 34°40' E 135°15'0 0.4
2015-Jun-27 01:33N 34°40' E 135°15'0 0.0
2015-Jun-27 00:27N 34°40' E 135°15'0 0.0
2015-Jun-26 23:33N 34°40' E 135°15'  
Track history (hours):
 
Tides and Currents Weather Stations Pressure Air Temp Water Temp Dewpoint Dewpoint Depression Visibility Wind Speed Wind Dir Waves Ship Positions

Hakozaki Maru

Last reported at 2015-Jul-06 22:31 UTC. Time now 2015-Jul-07 13:15 UTC.
Position N 34°40' E 135°13'.

Length 31 m; draft 2.5 m.

Type: Tug. MMSI: 431000322.

Date/timePositionNaut miles runAvg speedWind from/ knotsBaromVisibWave heightAir tempDewpointWater temp
2015-Jul-06 22:31N 34°40' E 135°13'1 1.4
2015-Jul-06 21:33N 34°40' E 135°15'2 2.4
2015-Jul-06 20:32N 34°41' E 135°12'0 0.0
2015-Jul-05 02:18N 34°41' E 135°13'2 2.8
2015-Jul-05 01:33N 34°41' E 135°15'2 1.7
2015-Jul-05 00:33N 34°41' E 135°13'1 0.7
2015-Jul-04 23:31N 34°41' E 135°12'2 0.1
2015-Jul-04 05:33N 34°41' E 135°14'2 1.6
2015-Jul-04 04:32N 34°41' E 135°12'0 0.0
2015-Jul-04 03:32N 34°41' E 135°12'0 0.0
2015-Jul-04 02:32N 34°41' E 135°12'0 0.0
2015-Jul-04 01:32N 34°41' E 135°12'1 1.1
2015-Jul-04 00:33N 34°41' E 135°13'1 0.9
2015-Jul-03 23:23N 34°41' E 135°12'4 0.4
2015-Jul-03 12:09N 34°42' E 135°17'0 0.4
2015-Jul-03 11:33N 34°41' E 135°17'0 0.4
2015-Jul-03 10:29N 34°42' E 135°17'0 0.0
2015-Jul-03 09:23N 34°42' E 135°17'0 0.0
2015-Jul-03 08:23N 34°42' E 135°17'0 0.0
2015-Jul-03 07:23N 34°42' E 135°17'0 0.4
2015-Jul-03 06:33N 34°42' E 135°18'0 0.3
2015-Jul-03 05:31N 34°42' E 135°17'0 0.0
2015-Jul-03 04:31N 34°42' E 135°17'0 0.0
2015-Jul-03 03:31N 34°42' E 135°17'0 0.0
2015-Jul-03 02:31N 34°42' E 135°17'0 0.0
2015-Jul-03 01:31N 34°42' E 135°17'0 0.0
2015-Jul-03 00:31N 34°42' E 135°17'0 0.0
2015-Jul-02 23:31N 34°42' E 135°17'1 0.6
2015-Jul-02 22:33N 34°42' E 135°18'2 1.8
2015-Jul-02 21:28N 34°42' E 135°16'1 0.1
2015-Jul-02 06:30N 34°41' E 135°17'4 4.1
2015-Jul-02 05:30N 34°41' E 135°12'0 0.0
2015-Jul-02 04:30N 34°41' E 135°12'0 0.0
2015-Jul-02 03:30N 34°41' E 135°12'0 0.0
2015-Jul-02 02:30N 34°41' E 135°12'0 0.0
2015-Jul-02 01:30N 34°41' E 135°12'0 0.0
2015-Jul-02 00:30N 34°41' E 135°12'5 5.0
2015-Jul-01 23:33N 34°42' E 135°18'1 0.8
2015-Jul-01 22:33N 34°41' E 135°18'3 3.2
2015-Jul-01 21:33N 34°41' E 135°14'0 0.0
2015-Jul-01 09:10N 34°41' E 135°15'2 2.6
2015-Jul-01 08:32N 34°42' E 135°16'0 0.1
2015-Jul-01 07:30N 34°42' E 135°16'1 0.7
2015-Jul-01 06:33N 34°42' E 135°17'2 2.1
2015-Jul-01 05:33N 34°41' E 135°19'2 2.2
2015-Jul-01 04:28N 34°42' E 135°16'0 0.0
2015-Jul-01 03:28N 34°42' E 135°16'0 0.0
2015-Jul-01 02:28N 34°42' E 135°16'2 1.8
2015-Jul-01 01:31N 34°42' E 135°14'0 0.1
2015-Jul-01 00:28N 34°42' E 135°14'2 1.6
2015-Jun-30 23:22N 34°41' E 135°12'4 4.6
2015-Jun-30 22:30N 34°42' E 135°17'2 2.3
2015-Jun-30 21:33N 34°41' E 135°15'1 0.1
2015-Jun-30 09:05N 34°40' E 135°14'0 0.9
2015-Jun-30 08:33N 34°41' E 135°13'1 1.0
2015-Jun-30 07:28N 34°41' E 135°12'0 0.0
2015-Jun-30 06:28N 34°41' E 135°12'3 3.3
2015-Jun-30 05:25N 34°39' E 135°09'0 0.3
2015-Jun-30 04:33N 34°39' E 135°09'3 3.4
2015-Jun-30 03:32N 34°41' E 135°12'0 0.0
2015-Jun-30 02:32N 34°41' E 135°12'0 0.0
2015-Jun-30 01:26N 34°41' E 135°12'0 0.0
2015-Jun-30 00:26N 34°41' E 135°12'0 0.0
2015-Jun-29 23:32N 34°41' E 135°12'4 3.6
2015-Jun-29 22:33N 34°39' E 135°09'3 2.8
2015-Jun-29 21:33N 34°40' E 135°12'  
2015-Jun-27 10:24N 34°41' E 135°13'1 0.7
2015-Jun-27 09:32N 34°41' E 135°14'0 0.0
2015-Jun-27 08:32N 34°41' E 135°14'0 0.0
2015-Jun-27 07:20N 34°41' E 135°14'0 0.0
2015-Jun-27 06:32N 34°41' E 135°14'1 1.0
2015-Jun-27 05:30N 34°42' E 135°13'0 0.0
2015-Jun-27 04:30N 34°42' E 135°13'2 1.6
2015-Jun-27 03:33N 34°42' E 135°15'2 1.6
2015-Jun-27 02:33N 34°40' E 135°15'0 0.4
2015-Jun-27 01:33N 34°40' E 135°15'0 0.0
2015-Jun-27 00:27N 34°40' E 135°15'0 0.0
2015-Jun-26 23:33N 34°40' E 135°15'  

Dump ship's entire track history